createdAt,value
2023-06-09T00:02:05.650Z,81
2023-06-09T00:04:36.108Z,80
2023-06-09T00:07:06.636Z,82
2023-06-09T00:09:37.440Z,82
2023-06-09T00:12:08.175Z,81
2023-06-09T00:14:38.897Z,82
2023-06-09T00:17:08.048Z,81
2023-06-09T00:19:38.637Z,82
2023-06-09T00:22:10.272Z,82
2023-06-09T00:24:41.443Z,83
2023-06-09T00:27:12.545Z,81
2023-06-09T00:29:43.985Z,80
2023-06-09T00:32:16.116Z,81
2023-06-09T00:34:47.058Z,81
2023-06-09T00:37:16.439Z,82
2023-06-09T00:39:47.221Z,81
2023-06-09T00:42:17.721Z,82
2023-06-09T00:44:48.924Z,82
2023-06-09T00:47:19.772Z,81
2023-06-09T00:49:50.483Z,82
2023-06-09T00:52:21.169Z,81
2023-06-09T00:54:52.378Z,81
2023-06-09T00:57:23.308Z,81
2023-06-09T00:59:54.996Z,81
2023-06-09T01:02:26.517Z,81
2023-06-09T01:04:57.606Z,81
2023-06-09T01:07:27.916Z,82
2023-06-09T01:09:58.611Z,81
2023-06-09T01:12:31.125Z,81
2023-06-09T01:15:02.093Z,82
2023-06-09T01:17:33.163Z,81
2023-06-09T01:20:04.185Z,81
2023-06-09T01:22:35.293Z,81
2023-06-09T01:25:06.436Z,81
2023-06-09T01:27:37.215Z,82
2023-06-09T01:30:08.004Z,82
2023-06-09T01:32:38.956Z,82
2023-06-09T01:35:09.568Z,83
2023-06-09T01:37:40.227Z,82
2023-06-09T01:40:11.456Z,83
2023-06-09T01:42:42.094Z,83
2023-06-09T01:45:13.134Z,82
2023-06-09T01:47:43.999Z,82
2023-06-09T01:50:14.938Z,82
2023-06-09T01:52:46.188Z,82
2023-06-09T01:55:17.035Z,83
2023-06-09T01:57:47.638Z,82
2023-06-09T02:00:18.675Z,81
2023-06-09T02:02:50.388Z,81
2023-06-09T02:05:21.224Z,82
2023-06-09T02:07:52.377Z,82
2023-06-09T02:10:23.259Z,82
2023-06-09T02:12:54.174Z,81
2023-06-09T02:15:25.318Z,82
2023-06-09T02:17:56.393Z,82
2023-06-09T02:20:27.031Z,82
2023-06-09T02:22:58.503Z,82
2023-06-09T02:25:29.190Z,81
2023-06-09T02:28:00.139Z,81
2023-06-09T02:30:31.048Z,81
2023-06-09T02:33:01.981Z,81
2023-06-09T02:35:32.750Z,81
2023-06-09T02:38:03.562Z,81
2023-06-09T02:40:34.701Z,81
2023-06-09T02:43:05.413Z,82
2023-06-09T02:45:36.159Z,82
2023-06-09T02:48:07.049Z,82
2023-06-09T02:50:37.807Z,81
2023-06-09T02:53:08.768Z,82
2023-06-09T02:55:39.658Z,81
2023-06-09T02:58:10.386Z,81
2023-06-09T03:00:41.334Z,81
2023-06-09T03:03:12.270Z,81
2023-06-09T03:05:43.228Z,81
2023-06-09T03:08:14.981Z,80
2023-06-09T03:10:46.438Z,80
2023-06-09T03:13:17.155Z,81
2023-06-09T03:15:47.694Z,80
2023-06-09T03:18:18.615Z,81
2023-06-09T03:20:49.532Z,81
2023-06-09T03:23:20.471Z,81
2023-06-09T03:25:51.544Z,81
2023-06-09T03:28:22.407Z,81
2023-06-09T03:30:53.288Z,81
2023-06-09T03:33:24.161Z,82
2023-06-09T03:35:54.559Z,83
2023-06-09T03:38:25.304Z,82
2023-06-09T03:40:56.583Z,81
2023-06-09T03:43:27.532Z,81
2023-06-09T03:45:58.533Z,81
2023-06-09T03:48:30.281Z,82
2023-06-09T03:51:01.331Z,82
2023-06-09T03:53:30.642Z,81
2023-06-09T03:56:01.488Z,81
2023-06-09T03:58:32.175Z,81
2023-06-09T04:01:03.249Z,81
2023-06-09T04:03:34.220Z,81
2023-06-09T04:06:05.356Z,81
2023-06-09T04:08:34.848Z,81
2023-06-09T04:11:05.554Z,81
2023-06-09T04:13:36.219Z,81
2023-06-09T04:16:07.508Z,81
2023-06-09T04:18:38.261Z,82
2023-06-09T04:21:08.647Z,82
2023-06-09T04:23:39.622Z,82
2023-06-09T04:26:10.462Z,81
2023-06-09T04:28:41.589Z,82
2023-06-09T04:31:12.703Z,81
2023-06-09T04:33:43.665Z,81
2023-06-09T04:36:14.502Z,80
2023-06-09T04:38:45.049Z,80
2023-06-09T04:41:16.275Z,81
2023-06-09T04:43:47.210Z,81
2023-06-09T04:46:18.335Z,80
2023-06-09T04:48:50.151Z,80
2023-06-09T04:51:21.103Z,81
2023-06-09T04:53:52.028Z,80
2023-06-09T04:56:24.233Z,80
2023-06-09T04:58:55.852Z,80
2023-06-09T05:01:26.653Z,81
2023-06-09T05:03:55.707Z,80
2023-06-09T05:06:26.713Z,80
2023-06-09T05:08:57.416Z,80
2023-06-09T05:11:28.056Z,81
2023-06-09T05:13:58.786Z,80
2023-06-09T05:16:29.987Z,79
2023-06-09T05:19:01.345Z,81
2023-06-09T05:21:32.495Z,80
2023-06-09T05:24:03.550Z,79
2023-06-09T05:26:42.595Z,80
2023-06-09T05:29:12.885Z,79
2023-06-09T05:31:43.808Z,79
2023-06-09T05:34:14.555Z,80
2023-06-09T05:36:45.048Z,79
2023-06-09T05:39:15.686Z,80
2023-06-09T05:41:46.278Z,79
2023-06-09T05:44:16.526Z,79
2023-06-09T05:46:46.858Z,79
2023-06-09T05:49:17.249Z,79
2023-06-09T05:51:48.032Z,79
2023-06-09T05:54:19.147Z,79
2023-06-09T05:56:52.495Z,80
2023-06-09T05:59:22.874Z,79
2023-06-09T06:01:53.629Z,79
2023-06-09T06:04:24.218Z,79
2023-06-09T06:06:59.170Z,80
2023-06-09T06:09:30.502Z,80
2023-06-09T06:12:01.254Z,80
2023-06-09T06:14:31.936Z,81
2023-06-09T06:17:04.837Z,80
2023-06-09T06:19:37.742Z,80
2023-06-09T06:22:08.425Z,79
2023-06-09T06:24:39.556Z,80
2023-06-09T06:27:10.282Z,80
2023-06-09T06:29:40.802Z,80
2023-06-09T06:32:13.657Z,80
2023-06-09T06:34:44.116Z,80
2023-06-09T06:37:14.920Z,79
2023-06-09T06:39:46.314Z,79
2023-06-09T06:42:16.873Z,79
2023-06-09T06:44:47.326Z,79
2023-06-09T06:47:18.149Z,79
2023-06-09T06:49:48.677Z,79
2023-06-09T06:52:19.591Z,80
2023-06-09T06:54:50.284Z,80
2023-06-09T06:57:21.132Z,79
2023-06-09T06:59:51.504Z,80
2023-06-09T07:02:22.730Z,80
2023-06-09T07:04:51.672Z,79
2023-06-09T07:07:22.569Z,81
2023-06-09T07:09:53.246Z,81
2023-06-09T07:12:24.265Z,80
2023-06-09T07:14:53.630Z,80
2023-06-09T07:17:25.392Z,80
2023-06-09T07:19:56.334Z,80
2023-06-09T07:22:28.224Z,80
2023-06-09T07:24:59.541Z,79
2023-06-09T07:27:28.786Z,80
2023-06-09T07:30:01.146Z,80
2023-06-09T07:32:32.260Z,79
2023-06-09T07:35:04.902Z,79
2023-06-09T07:37:35.975Z,79
2023-06-09T07:40:17.725Z,80
2023-06-09T07:42:37.736Z,80
2023-06-09T07:45:10.556Z,79
2023-06-09T07:47:41.182Z,80
2023-06-09T07:50:11.991Z,79
2023-06-09T07:52:43.109Z,80
2023-06-09T07:55:15.536Z,80
2023-06-09T07:57:45.395Z,80
2023-06-09T08:00:16.018Z,79
2023-06-09T08:02:47.651Z,78
2023-06-09T08:05:20.329Z,78
2023-06-09T08:07:50.799Z,78
2023-06-09T08:10:21.344Z,79
2023-06-09T08:12:52.635Z,79
2023-06-09T08:15:23.295Z,80
2023-06-09T08:17:54.122Z,79
2023-06-09T08:20:25.302Z,78
2023-06-09T08:22:58.591Z,78
2023-06-09T08:25:29.736Z,78
2023-06-09T08:28:00.731Z,77
2023-06-09T08:30:40.370Z,78
2023-06-09T08:33:11.901Z,77
2023-06-09T08:35:42.913Z,78
2023-06-09T08:38:13.552Z,77
2023-06-09T08:40:53.511Z,77
2023-06-09T08:43:27.205Z,76
2023-06-09T08:45:59.198Z,76
2023-06-09T08:48:30.168Z,77
2023-06-09T08:51:02.668Z,77
2023-06-09T08:53:34.903Z,76
2023-06-09T08:56:06.297Z,74
2023-06-09T08:58:37.612Z,75
2023-06-09T09:01:09.054Z,76
2023-06-09T09:03:43.850Z,77
2023-06-09T09:06:15.996Z,76
2023-06-09T09:08:47.728Z,75
2023-06-09T09:11:18.739Z,75
2023-06-09T09:13:49.959Z,74
2023-06-09T09:16:23.332Z,73
2023-06-09T09:19:00.606Z,73
2023-06-09T09:21:31.140Z,72
2023-06-09T09:24:06.274Z,72
2023-06-09T09:26:42.066Z,73
2023-06-09T09:29:13.379Z,73
2023-06-09T09:31:44.620Z,73
2023-06-09T09:34:18.034Z,72
2023-06-09T09:36:48.995Z,72
2023-06-09T09:39:21.204Z,73
2023-06-09T09:41:52.957Z,73
2023-06-09T09:44:23.476Z,72
2023-06-09T09:46:56.307Z,72
2023-06-09T09:49:29.288Z,70
2023-06-09T09:52:00.024Z,70
2023-06-09T09:54:33.350Z,70
2023-06-09T09:57:04.149Z,71
2023-06-09T09:59:35.356Z,71
2023-06-09T10:02:07.054Z,70
2023-06-09T10:04:39.334Z,70
2023-06-09T10:07:13.304Z,70
2023-06-09T10:09:45.594Z,69
2023-06-09T10:12:19.094Z,68
2023-06-09T10:14:50.562Z,69
2023-06-09T10:17:21.653Z,68
2023-06-09T10:19:52.421Z,67
2023-06-09T10:22:23.569Z,67
2023-06-09T10:24:54.520Z,67
2023-06-09T10:27:26.495Z,66
2023-06-09T10:29:57.440Z,66
2023-06-09T10:32:30.396Z,66
2023-06-09T10:35:01.177Z,66
2023-06-09T10:37:31.949Z,65
2023-06-09T10:40:02.323Z,64
2023-06-09T10:42:32.222Z,64
2023-06-09T10:45:08.892Z,65
2023-06-09T10:47:48.042Z,63
2023-06-09T10:50:23.574Z,63
2023-06-09T10:52:54.198Z,63
2023-06-09T10:55:25.276Z,63
2023-06-09T10:57:56.365Z,62
2023-06-09T11:00:31.061Z,63
2023-06-09T11:03:00.171Z,62
2023-06-09T11:05:30.388Z,62
2023-06-09T11:08:00.868Z,62
2023-06-09T11:10:32.399Z,63
2023-06-09T11:13:05.792Z,61
2023-06-09T11:15:36.975Z,61
2023-06-09T11:18:07.416Z,62
2023-06-09T11:20:41.934Z,61
2023-06-09T11:23:17.148Z,60
2023-06-09T11:25:48.427Z,60
2023-06-09T11:28:18.999Z,61
2023-06-09T11:30:53.298Z,62
2023-06-09T11:33:22.344Z,60
2023-06-09T11:35:56.101Z,59
2023-06-09T11:38:27.229Z,59
2023-06-09T11:41:08.035Z,59
2023-06-09T11:43:39.048Z,57
2023-06-09T11:46:10.132Z,59
2023-06-09T11:48:44.876Z,57
2023-06-09T11:51:14.265Z,57
2023-06-09T11:53:45.091Z,58
2023-06-09T11:58:52.652Z,59
2023-06-09T12:01:23.748Z,59
2023-06-09T12:03:55.934Z,59
2023-06-09T12:06:28.549Z,58
2023-06-09T12:08:57.077Z,56
2023-06-09T12:11:32.736Z,56
2023-06-09T12:14:04.044Z,57
2023-06-09T12:16:35.130Z,57
2023-06-09T12:19:05.754Z,56
2023-06-09T12:21:45.406Z,56
2023-06-09T12:24:16.194Z,57
2023-06-09T12:26:49.109Z,56
2023-06-09T12:29:19.613Z,57
2023-06-09T12:31:57.248Z,59
2023-06-09T12:34:29.080Z,55
2023-06-09T12:37:00.956Z,55
2023-06-09T12:39:31.424Z,55
2023-06-09T12:42:09.292Z,55
2023-06-09T12:44:39.597Z,55
2023-06-09T12:47:19.284Z,53
2023-06-09T12:49:53.871Z,54
2023-06-09T12:52:24.812Z,55
2023-06-09T12:55:10.470Z,54
2023-06-09T12:57:29.678Z,53
2023-06-09T13:00:11.504Z,55
2023-06-09T13:02:31.678Z,56
2023-06-09T13:05:04.600Z,56
2023-06-09T13:07:35.396Z,54
2023-06-09T13:10:06.268Z,53
2023-06-09T13:12:36.903Z,54
2023-06-09T13:15:08.045Z,54
2023-06-09T13:17:38.618Z,54
2023-06-09T13:20:09.686Z,54
2023-06-09T13:22:40.198Z,53
2023-06-09T13:25:10.789Z,54
2023-06-09T13:27:50.877Z,54
2023-06-09T13:30:26.828Z,53
2023-06-09T13:32:58.078Z,53
2023-06-09T13:35:27.213Z,53
2023-06-09T13:37:58.380Z,51
2023-06-09T13:40:31.064Z,50
2023-06-09T13:43:04.725Z,50
2023-06-09T13:45:35.098Z,52
2023-06-09T13:48:06.781Z,52
2023-06-09T13:50:37.418Z,52
2023-06-09T13:53:08.166Z,50
2023-06-09T13:55:38.846Z,51
2023-06-09T13:58:09.879Z,52
2023-06-09T14:00:40.715Z,51
2023-06-09T14:03:11.562Z,52
2023-06-09T14:05:42.117Z,53
2023-06-09T14:08:12.792Z,54
2023-06-09T14:10:46.467Z,54
2023-06-09T14:13:16.948Z,54
2023-06-09T14:15:47.725Z,52
2023-06-09T14:18:16.794Z,50
2023-06-09T14:20:47.463Z,50
2023-06-09T14:23:17.636Z,51
2023-06-09T14:25:47.924Z,52
2023-06-09T14:28:17.525Z,52
2023-06-09T14:30:48.704Z,51
2023-06-09T14:33:21.110Z,52
2023-06-09T14:35:51.726Z,51
2023-06-09T14:38:22.307Z,52
2023-06-09T14:40:54.833Z,52
2023-06-09T14:43:23.952Z,53
2023-06-09T14:45:54.659Z,54
2023-06-09T14:48:34.308Z,53
2023-06-09T14:51:05.117Z,54
2023-06-09T14:53:36.150Z,54
2023-06-09T14:56:06.724Z,53
2023-06-09T14:58:35.937Z,54
2023-06-09T15:01:06.129Z,54
2023-06-09T15:03:38.844Z,52
2023-06-09T15:06:09.467Z,54
2023-06-09T15:08:39.913Z,54
2023-06-09T15:11:11.639Z,55
2023-06-09T15:13:42.795Z,55
2023-06-09T15:16:13.452Z,54
2023-06-09T15:18:43.991Z,54
2023-06-09T15:21:14.755Z,54
2023-06-09T15:23:45.275Z,55
2023-06-09T15:26:16.938Z,54
2023-06-09T15:28:48.107Z,55
2023-06-09T15:31:20.929Z,54
2023-06-09T15:33:51.425Z,54
2023-06-09T15:36:20.793Z,54
2023-06-09T15:38:57.183Z,55
2023-06-09T15:41:34.259Z,56
2023-06-09T15:44:04.704Z,56
2023-06-09T15:46:37.589Z,55
2023-06-09T15:49:17.274Z,54
2023-06-09T15:51:46.214Z,55
2023-06-09T15:54:18.217Z,56
2023-06-09T15:57:10.176Z,56
2023-06-09T15:59:46.264Z,56
2023-06-09T16:02:21.991Z,56
2023-06-09T16:04:55.389Z,57
2023-06-09T16:07:42.861Z,56
2023-06-09T16:10:13.173Z,57
2023-06-09T16:12:42.886Z,57
2023-06-09T16:15:13.009Z,57
2023-06-09T16:17:44.891Z,57
2023-06-09T16:20:21.564Z,57
2023-06-09T16:22:52.526Z,57
2023-06-09T16:25:22.794Z,57
2023-06-09T16:27:53.138Z,58
2023-06-09T16:30:23.695Z,58
2023-06-09T16:32:54.183Z,57
2023-06-09T16:35:25.036Z,57
2023-06-09T16:37:55.574Z,59
2023-06-09T16:40:26.648Z,59
2023-06-09T16:42:59.597Z,58
2023-06-09T16:45:31.077Z,58
2023-06-09T16:48:01.289Z,59
2023-06-09T16:50:31.804Z,58
2023-06-09T16:53:02.020Z,58
2023-06-09T16:55:32.541Z,58
2023-06-09T16:58:04.129Z,59
2023-06-09T17:00:36.793Z,60
2023-06-09T17:03:07.028Z,60
2023-06-09T17:05:39.406Z,61
2023-06-09T17:08:09.688Z,62
2023-06-09T17:10:40.316Z,61
2023-06-09T17:13:13.855Z,62
2023-06-09T17:15:44.344Z,63
2023-06-09T17:18:17.881Z,62
2023-06-09T17:20:50.246Z,62
2023-06-09T17:23:23.647Z,62
2023-06-09T17:25:54.260Z,62
2023-06-09T17:28:25.034Z,62
2023-06-09T17:30:57.239Z,63
2023-06-09T17:33:27.944Z,62
2023-06-09T17:35:58.142Z,63
2023-06-09T17:38:28.213Z,63
2023-06-09T17:40:59.942Z,63
2023-06-09T17:43:30.389Z,63
2023-06-09T17:46:00.691Z,63
2023-06-09T17:48:36.079Z,63
2023-06-09T17:51:07.116Z,63
2023-06-09T17:53:37.241Z,63
2023-06-09T17:56:11.921Z,63
2023-06-09T17:58:42.591Z,63
2023-06-09T18:01:13.337Z,64
2023-06-09T18:03:43.765Z,63
2023-06-09T18:06:15.375Z,63
2023-06-09T18:08:44.214Z,63
2023-06-09T18:11:19.041Z,63
2023-06-09T18:13:49.604Z,63
2023-06-09T18:16:21.617Z,62
2023-06-09T18:18:51.978Z,62
2023-06-09T18:21:22.883Z,62
2023-06-09T18:23:57.720Z,62
2023-06-09T18:26:33.129Z,62
2023-06-09T18:29:03.143Z,62
2023-06-09T18:31:37.896Z,62
2023-06-09T18:34:10.571Z,62
2023-06-09T18:36:43.445Z,62
2023-06-09T18:39:14.005Z,62
2023-06-09T18:41:44.423Z,62
2023-06-09T18:44:19.701Z,63
2023-06-09T18:46:49.925Z,63
2023-06-09T18:49:20.792Z,63
2023-06-09T18:51:52.692Z,63
2023-06-09T18:54:26.697Z,63
2023-06-09T18:57:02.952Z,64
2023-06-09T18:59:33.859Z,64
2023-06-09T19:02:04.417Z,65
2023-06-09T19:04:34.938Z,66
2023-06-09T19:07:05.287Z,65
2023-06-09T19:09:35.844Z,66
2023-06-09T19:12:07.131Z,67
2023-06-09T19:14:37.783Z,68
2023-06-09T19:17:08.560Z,68
2023-06-09T19:19:39.130Z,67
2023-06-09T19:22:09.338Z,68
2023-06-09T19:24:41.610Z,67
2023-06-09T19:27:11.894Z,68
2023-06-09T19:29:42.231Z,68
2023-06-09T19:32:16.541Z,68
2023-06-09T19:34:46.693Z,68
2023-06-09T19:37:26.376Z,68
2023-06-09T19:39:59.622Z,69
2023-06-09T19:42:30.227Z,69
2023-06-09T19:45:00.674Z,69
2023-06-09T19:47:31.215Z,69
2023-06-09T19:50:03.285Z,69
2023-06-09T19:52:34.896Z,69
2023-06-09T19:55:09.537Z,69
2023-06-09T19:57:43.198Z,69
2023-06-09T20:00:13.679Z,69
2023-06-09T20:02:44.562Z,69
2023-06-09T20:05:14.897Z,69
2023-06-09T20:07:46.589Z,69
2023-06-09T20:10:17.046Z,69
2023-06-09T20:12:50.504Z,69
2023-06-09T20:15:41.131Z,69
2023-06-09T20:18:22.738Z,70
2023-06-09T20:20:58.516Z,69
2023-06-09T20:23:30.703Z,69
2023-06-09T20:26:05.421Z,69
2023-06-09T20:28:38.822Z,70
2023-06-09T20:31:08.367Z,70
2023-06-09T20:33:49.013Z,70
2023-06-09T20:36:28.161Z,70
2023-06-09T20:41:44.211Z,70
2023-06-09T20:44:14.583Z,70
2023-06-09T20:46:44.904Z,70
2023-06-09T20:49:15.371Z,71
2023-06-09T20:51:45.807Z,71
2023-06-09T20:54:17.154Z,71
2023-06-09T20:56:47.731Z,71
2023-06-09T20:59:18.174Z,72
2023-06-09T21:01:48.593Z,71
2023-06-09T21:04:19.823Z,72
2023-06-09T21:09:48.535Z,70
2023-06-09T21:12:20.974Z,70
2023-06-09T21:14:51.792Z,71
2023-06-09T21:17:22.232Z,72
2023-06-09T21:19:53.067Z,71
2023-06-09T21:22:23.360Z,72
2023-06-09T21:24:53.906Z,71
2023-06-09T21:27:24.199Z,72
2023-06-09T21:29:54.797Z,72
2023-06-09T21:32:24.841Z,72
2023-06-09T21:34:54.960Z,71
2023-06-09T21:37:25.404Z,71
2023-06-09T21:39:55.825Z,71
2023-06-09T21:42:26.652Z,70
2023-06-09T21:44:57.146Z,71
2023-06-09T21:47:27.825Z,71
2023-06-09T21:49:58.530Z,71
2023-06-09T21:52:29.194Z,71
2023-06-09T21:54:59.453Z,71
2023-06-09T21:57:30.241Z,72
2023-06-09T22:00:00.840Z,72
2023-06-09T22:02:31.578Z,72
2023-06-09T22:05:01.791Z,73
2023-06-09T22:07:32.406Z,73
2023-06-09T22:10:03.138Z,72
2023-06-09T22:12:38.205Z,72
2023-06-09T22:15:12.372Z,72
2023-06-09T22:17:45.307Z,71
2023-06-09T22:20:16.179Z,72
2023-06-09T22:22:46.860Z,72
2023-06-09T22:25:17.495Z,73
2023-06-09T22:27:47.944Z,72
2023-06-09T22:30:18.432Z,73
2023-06-09T22:32:48.806Z,73
2023-06-09T22:35:19.270Z,73
2023-06-09T22:37:49.656Z,73
2023-06-09T22:40:21.352Z,73
2023-06-09T22:42:51.829Z,73
2023-06-09T22:45:22.614Z,72
2023-06-09T22:47:51.478Z,73
2023-06-09T22:50:22.122Z,73
2023-06-09T22:52:53.368Z,73
2023-06-09T22:55:24.775Z,73
2023-06-09T22:57:55.630Z,73
2023-06-09T23:00:26.169Z,74
2023-06-09T23:02:56.580Z,73
2023-06-09T23:05:27.504Z,74
2023-06-09T23:07:58.448Z,74
2023-06-09T23:10:29.130Z,75
2023-06-09T23:13:02.130Z,74
2023-06-09T23:15:32.818Z,74
2023-06-09T23:18:02.279Z,75
2023-06-09T23:20:33.255Z,75
2023-06-09T23:23:04.509Z,75
2023-06-09T23:25:35.245Z,75
2023-06-09T23:28:06.165Z,75
2023-06-09T23:30:36.756Z,75
2023-06-09T23:33:07.380Z,75
2023-06-09T23:35:37.919Z,75
2023-06-09T23:38:07.317Z,75
2023-06-09T23:40:37.825Z,75
2023-06-09T23:43:08.846Z,74
2023-06-09T23:45:39.859Z,74
2023-06-09T23:48:10.802Z,74
2023-06-09T23:50:41.645Z,75
2023-06-09T23:53:13.505Z,75
2023-06-09T23:55:44.190Z,76
2023-06-09T23:58:15.028Z,75
